Plateau City, Colorado
Current Conditions -  °F | °C
As of 12:53 PM on Thursday 29 Jan 2015 (Local Time) from KRIL Reporting Station
Clear Clear  
Wind Chill: 48°   Ceiling: Unl
Heat Index: 48°   Visibility: 10mi
Dew Point: 27°   Wind: 3mph
Humidity: 44%   Direction: 150°SSE
Pressure: 30.31"   Gusts: NA
Location:  39.245°N, 107.783°W
Report Text: KRIL 291953Z AUTO 15003KT 10SM CLR 09/M03 A3031 RMK AO2 SLP256 T00891028
Loading
Personal Weather Stations






























Interactive Weather Map New forecast layout! Learn more

10-Day Weather Forecast

Advertisements
Track Severe Weather on mobile